createdAt,value
2019-02-21T00:01:15.700Z,5.64
2019-02-21T00:03:45.035Z,5.60
2019-02-21T00:06:13.884Z,5.55
2019-02-21T00:08:43.382Z,5.51
2019-02-21T00:11:13.397Z,5.48
2019-02-21T00:13:43.212Z,5.45
2019-02-21T00:16:12.808Z,5.44
2019-02-21T00:18:43.304Z,5.42
2019-02-21T00:21:12.732Z,5.39
2019-02-21T00:23:41.512Z,5.36
2019-02-21T00:26:10.568Z,5.35
2019-02-21T00:28:39.373Z,5.32
2019-02-21T00:31:08.179Z,5.31
2019-02-21T00:33:36.989Z,5.29
2019-02-21T00:36:06.379Z,5.27
2019-02-21T00:38:35.183Z,5.24
2019-02-21T00:41:04.993Z,5.23
2019-02-21T00:43:33.808Z,5.23
2019-02-21T00:46:03.515Z,5.24
2019-02-21T00:48:34.044Z,5.23
2019-02-21T00:51:03.536Z,5.23
2019-02-21T00:53:32.958Z,5.23
2019-02-21T00:56:01.736Z,5.22
2019-02-21T00:58:32.802Z,5.23
2019-02-21T01:01:06.530Z,5.23
2019-02-21T01:03:35.910Z,5.22
2019-02-21T01:06:04.722Z,5.22
2019-02-21T01:08:34.091Z,5.22
2019-02-21T01:11:03.452Z,5.22
2019-02-21T01:13:33.446Z,5.24
2019-02-21T01:16:02.270Z,5.24
2019-02-21T01:18:31.069Z,5.24
2019-02-21T01:20:59.876Z,5.23
2019-02-21T01:23:29.247Z,5.23
2019-02-21T01:25:58.058Z,5.23
2019-02-21T01:28:27.559Z,5.24
2019-02-21T01:30:57.413Z,5.25
2019-02-21T01:33:25.779Z,5.27
2019-02-21T01:35:55.088Z,5.28
2019-02-21T01:38:23.875Z,5.28
2019-02-21T01:40:53.599Z,5.29
2019-02-21T01:43:23.985Z,5.29
2019-02-21T01:45:52.923Z,5.30
2019-02-21T01:48:22.266Z,5.30
2019-02-21T01:50:51.052Z,5.28
2019-02-21T01:53:20.440Z,5.21
2019-02-21T01:55:49.230Z,5.13
2019-02-21T01:58:18.583Z,5.08
2019-02-21T02:00:47.378Z,5.03
2019-02-21T02:03:17.402Z,5.00
2019-02-21T02:05:46.475Z,4.98
2019-02-21T02:08:15.860Z,4.97
2019-02-21T02:10:44.630Z,4.99
2019-02-21T02:13:24.159Z,5.01
2019-02-21T02:15:42.359Z,5.02
2019-02-21T02:18:12.468Z,5.05
2019-02-21T02:20:42.074Z,5.07
2019-02-21T02:23:11.508Z,5.08
2019-02-21T02:25:41.226Z,5.08
2019-02-21T02:28:10.733Z,5.08
2019-02-21T02:30:40.271Z,5.03
2019-02-21T02:33:09.031Z,5.00
2019-02-21T02:35:37.905Z,4.99
2019-02-21T02:38:07.343Z,4.97
2019-02-21T02:40:36.656Z,4.92
2019-02-21T02:43:05.441Z,4.89
2019-02-21T02:45:34.261Z,4.84
2019-02-21T02:48:03.078Z,4.81
2019-02-21T02:50:32.097Z,4.80
2019-02-21T02:53:01.759Z,4.80
2019-02-21T02:55:30.550Z,4.81
2019-02-21T02:58:00.406Z,4.82
2019-02-21T03:00:29.203Z,4.82
2019-02-21T03:02:59.568Z,4.84
2019-02-21T03:05:28.479Z,4.84
2019-02-21T03:07:57.307Z,4.83
2019-02-21T03:10:26.818Z,4.84
2019-02-21T03:12:55.595Z,4.84
2019-02-21T03:15:24.518Z,4.80
2019-02-21T03:17:53.331Z,4.79
2019-02-21T03:20:23.891Z,4.72
2019-02-21T03:22:52.657Z,4.70
2019-02-21T03:25:21.449Z,4.65
2019-02-21T03:27:50.253Z,4.62
2019-02-21T03:30:20.609Z,4.58
2019-02-21T03:32:49.525Z,4.54
2019-02-21T03:35:18.318Z,4.50
2019-02-21T03:37:48.428Z,4.48
2019-02-21T03:40:17.250Z,4.45
2019-02-21T03:42:46.670Z,4.42
2019-02-21T03:45:15.912Z,4.41
2019-02-21T03:47:44.975Z,4.39
2019-02-21T03:50:14.436Z,4.39
2019-02-21T03:52:43.980Z,4.36
2019-02-21T03:55:13.727Z,4.33
2019-02-21T03:57:43.154Z,4.31
2019-02-21T04:00:11.982Z,4.30
2019-02-21T04:02:41.382Z,4.29
2019-02-21T04:05:10.388Z,4.25
2019-02-21T04:07:40.146Z,4.22
2019-02-21T04:10:10.168Z,4.19
2019-02-21T04:12:39.482Z,4.18
2019-02-21T04:15:08.344Z,4.15
2019-02-21T04:17:38.085Z,4.16
2019-02-21T04:20:06.947Z,4.13
2019-02-21T04:22:35.733Z,4.11
2019-02-21T04:25:04.647Z,4.10
2019-02-21T04:27:33.479Z,4.11
2019-02-21T04:30:03.010Z,4.09
2019-02-21T04:32:32.571Z,4.10
2019-02-21T04:35:01.423Z,4.13
2019-02-21T04:37:30.517Z,4.13
2019-02-21T04:39:59.304Z,4.10
2019-02-21T04:42:29.041Z,4.07
2019-02-21T04:44:57.808Z,4.05
2019-02-21T04:47:27.631Z,4.03
2019-02-21T04:49:57.693Z,4.04
2019-02-21T04:52:26.467Z,4.02
2019-02-21T04:54:55.263Z,3.99
2019-02-21T04:57:24.088Z,3.99
2019-02-21T04:59:52.987Z,4.02
2019-02-21T05:02:29.277Z,4.03
2019-02-21T05:04:50.863Z,4.03
2019-02-21T05:07:20.494Z,4.03
2019-02-21T05:09:57.300Z,4.03
2019-02-21T05:12:20.179Z,4.03
2019-02-21T05:14:48.887Z,4.03
2019-02-21T05:17:20.417Z,4.00
2019-02-21T05:19:50.405Z,4.00
2019-02-21T05:22:20.080Z,4.01
2019-02-21T05:24:49.035Z,4.00
2019-02-21T05:27:24.239Z,3.98
2019-02-21T05:29:53.063Z,3.94
2019-02-21T05:32:27.186Z,3.89
2019-02-21T05:35:06.547Z,3.83
2019-02-21T05:37:41.227Z,3.80
2019-02-21T05:40:14.238Z,3.77
2019-02-21T05:42:55.432Z,3.74
2019-02-21T05:45:30.651Z,3.72
2019-02-21T05:48:09.306Z,3.70
2019-02-21T05:50:44.178Z,3.70
2019-02-21T05:53:17.126Z,3.71
2019-02-21T05:55:51.586Z,3.74
2019-02-21T05:58:26.174Z,3.76
2019-02-21T06:01:01.005Z,3.77
2019-02-21T06:03:36.994Z,3.79
2019-02-21T06:06:17.297Z,3.81
2019-02-21T06:08:49.759Z,3.92
2019-02-21T06:11:25.443Z,3.99
2019-02-21T06:14:00.886Z,4.04
2019-02-21T06:16:35.077Z,4.09
2019-02-21T06:19:27.516Z,4.11
2019-02-21T06:22:10.032Z,4.14
2019-02-21T06:24:51.523Z,4.18
2019-02-21T06:27:25.233Z,4.22
2019-02-21T06:29:58.429Z,4.25
2019-02-21T06:32:28.249Z,4.24
2019-02-21T06:35:02.795Z,4.24
2019-02-21T06:37:30.679Z,4.25
2019-02-21T06:40:00.211Z,4.29
2019-02-21T06:42:29.293Z,4.33
2019-02-21T06:44:59.902Z,4.36
2019-02-21T06:47:29.032Z,4.41
2019-02-21T06:49:58.780Z,4.43
2019-02-21T06:52:28.027Z,4.46
2019-02-21T06:54:56.897Z,4.52
2019-02-21T06:57:27.365Z,4.57
2019-02-21T06:59:56.172Z,4.62
2019-02-21T07:02:27.988Z,4.68
2019-02-21T07:04:56.604Z,4.73
2019-02-21T07:07:23.355Z,4.80
2019-02-21T07:09:52.736Z,4.85
2019-02-21T07:12:21.542Z,4.89
2019-02-21T07:14:50.848Z,4.95
2019-02-21T07:17:20.650Z,5.01
2019-02-21T07:19:50.619Z,5.10
2019-02-21T07:22:22.369Z,5.16
2019-02-21T07:24:50.310Z,5.24
2019-02-21T07:27:19.611Z,5.31
2019-02-21T07:29:49.205Z,5.38
2019-02-21T07:32:18.018Z,5.46
2019-02-21T07:34:47.809Z,5.53
2019-02-21T07:37:18.954Z,5.62
2019-02-21T07:39:47.929Z,5.67
2019-02-21T07:42:17.374Z,5.75
2019-02-21T07:44:46.167Z,5.78
2019-02-21T07:47:15.819Z,5.83
2019-02-21T07:49:45.885Z,5.86
2019-02-21T07:52:14.715Z,5.91
2019-02-21T07:54:46.538Z,5.98
2019-02-21T07:57:16.371Z,6.03
2019-02-21T07:59:45.155Z,6.11
2019-02-21T08:02:13.946Z,6.20
2019-02-21T08:04:43.350Z,6.34
2019-02-21T08:07:12.145Z,6.52
2019-02-21T08:09:41.851Z,6.66
2019-02-21T08:12:10.357Z,6.80
2019-02-21T08:14:39.760Z,6.91
2019-02-21T08:17:09.988Z,7.00
2019-02-21T08:19:38.810Z,7.08
2019-02-21T08:22:07.656Z,7.21
2019-02-21T08:24:37.455Z,7.28
2019-02-21T08:27:06.244Z,7.32
2019-02-21T08:29:35.050Z,7.35
2019-02-21T08:32:04.104Z,7.39
2019-02-21T08:34:37.164Z,7.46
2019-02-21T08:37:08.545Z,7.55
2019-02-21T08:39:37.958Z,7.61
2019-02-21T08:42:07.896Z,7.69
2019-02-21T08:44:38.134Z,7.78
2019-02-21T08:47:06.967Z,7.87
2019-02-21T08:49:36.040Z,7.97
2019-02-21T08:52:04.813Z,8.01
2019-02-21T08:54:34.320Z,8.02
2019-02-21T08:57:04.002Z,8.02
2019-02-21T08:59:32.789Z,8.04
2019-02-21T09:02:01.614Z,8.06
2019-02-21T09:04:30.425Z,8.11
2019-02-21T09:06:59.266Z,8.20
2019-02-21T09:09:28.114Z,8.38
2019-02-21T09:11:56.939Z,8.55
2019-02-21T09:14:25.741Z,8.78
2019-02-21T09:16:54.807Z,9.03
2019-02-21T09:19:23.591Z,9.31
2019-02-21T09:21:53.566Z,9.60
2019-02-21T09:24:37.486Z,9.76
2019-02-21T09:26:50.112Z,9.85
2019-02-21T09:29:18.931Z,9.98
2019-02-21T09:31:48.199Z,10.04
2019-02-21T09:34:21.080Z,10.07
2019-02-21T09:36:46.392Z,10.13
2019-02-21T09:39:16.077Z,10.21
2019-02-21T09:41:44.683Z,10.30
2019-02-21T09:44:13.470Z,10.40
2019-02-21T09:46:43.371Z,10.50
2019-02-21T09:49:12.263Z,10.58
2019-02-21T09:51:41.069Z,10.70
2019-02-21T09:54:10.634Z,10.95
2019-02-21T09:56:40.376Z,11.28
2019-02-21T09:59:11.025Z,11.57
2019-02-21T10:01:39.827Z,11.84
2019-02-21T10:04:09.447Z,11.97
2019-02-21T10:06:38.763Z,11.96
2019-02-21T10:09:08.812Z,11.97
2019-02-21T10:11:37.680Z,11.93
2019-02-21T10:14:06.473Z,11.92
2019-02-21T10:16:38.299Z,11.98
2019-02-21T10:19:07.093Z,12.25
2019-02-21T10:21:35.947Z,12.45
2019-02-21T10:24:06.727Z,12.51
2019-02-21T10:26:35.634Z,12.42
2019-02-21T10:29:07.041Z,12.37
2019-02-21T10:31:36.231Z,12.28
2019-02-21T10:34:07.253Z,12.33
2019-02-21T10:36:36.114Z,12.42
2019-02-21T10:39:05.416Z,12.40
2019-02-21T10:41:34.599Z,12.38
2019-02-21T10:44:04.636Z,12.42
2019-02-21T10:46:33.688Z,12.49
2019-02-21T10:49:02.522Z,12.68
2019-02-21T10:51:31.921Z,12.83
2019-02-21T10:54:00.752Z,13.00
2019-02-21T10:56:29.602Z,13.33
2019-02-21T10:58:58.379Z,13.62
2019-02-21T11:01:27.185Z,13.81
2019-02-21T11:03:55.988Z,13.96
2019-02-21T11:06:24.792Z,13.98
2019-02-21T11:08:53.614Z,14.21
2019-02-21T11:11:22.738Z,14.39
2019-02-21T11:13:52.213Z,14.45
2019-02-21T11:16:21.560Z,14.52
2019-02-21T11:18:53.005Z,14.68
2019-02-21T11:21:21.798Z,14.84
2019-02-21T11:23:51.242Z,14.83
2019-02-21T11:26:20.809Z,14.74
2019-02-21T11:28:50.897Z,14.64
2019-02-21T11:31:19.685Z,14.53
2019-02-21T11:33:49.229Z,14.44
2019-02-21T11:36:18.127Z,14.44
2019-02-21T11:38:47.259Z,14.41
2019-02-21T11:41:17.016Z,14.43
2019-02-21T11:43:45.835Z,14.37
2019-02-21T11:46:14.661Z,14.31
2019-02-21T11:48:44.254Z,14.30
2019-02-21T11:51:13.667Z,14.21
2019-02-21T11:53:43.355Z,14.17
2019-02-21T11:56:12.275Z,14.14
2019-02-21T11:58:41.783Z,14.17
2019-02-21T12:01:10.916Z,14.28
2019-02-21T12:03:39.741Z,14.43
2019-02-21T12:06:11.632Z,14.64
2019-02-21T12:08:40.491Z,14.83
2019-02-21T12:11:09.404Z,14.92
2019-02-21T12:13:38.224Z,14.92
2019-02-21T12:16:07.020Z,15.16
2019-02-21T12:18:37.928Z,15.73
2019-02-21T12:21:06.738Z,16.04
2019-02-21T12:23:35.577Z,16.10
2019-02-21T12:26:04.363Z,16.04
2019-02-21T12:28:33.205Z,15.80
2019-02-21T12:31:01.972Z,15.68
2019-02-21T12:33:30.848Z,15.69
2019-02-21T12:36:01.495Z,15.73
2019-02-21T12:38:30.283Z,15.69
2019-02-21T12:40:59.164Z,15.70
2019-02-21T12:43:29.015Z,15.74
2019-02-21T12:46:00.998Z,15.70
2019-02-21T12:48:29.835Z,15.66
2019-02-21T12:50:58.708Z,15.57
2019-02-21T12:53:28.307Z,15.41
2019-02-21T12:55:56.299Z,15.34
2019-02-21T12:58:27.742Z,15.25
2019-02-21T13:00:56.546Z,15.24
2019-02-21T13:03:26.003Z,15.29
2019-02-21T13:05:56.583Z,15.28
2019-02-21T13:08:26.206Z,15.31
2019-02-21T13:10:54.994Z,15.40
2019-02-21T13:13:25.974Z,15.48
2019-02-21T13:15:55.507Z,15.50
2019-02-21T13:18:24.330Z,15.47
2019-02-21T13:20:54.203Z,15.48
2019-02-21T13:23:24.025Z,15.43
2019-02-21T13:25:53.469Z,15.34
2019-02-21T13:28:22.905Z,15.41
2019-02-21T13:30:51.713Z,15.46
2019-02-21T13:33:21.226Z,15.42
2019-02-21T13:35:52.908Z,15.42
2019-02-21T13:38:19.496Z,15.50
2019-02-21T13:40:49.662Z,15.50
2019-02-21T13:43:18.450Z,15.48
2019-02-21T13:45:47.226Z,15.47
2019-02-21T13:48:17.791Z,15.39
2019-02-21T13:50:46.565Z,15.33
2019-02-21T13:53:16.735Z,15.21
2019-02-21T13:55:47.192Z,15.13
2019-02-21T13:58:16.666Z,15.10
2019-02-21T14:00:45.476Z,15.07
2019-02-21T14:03:15.135Z,15.01
2019-02-21T14:05:44.024Z,14.89
2019-02-21T14:08:13.635Z,14.78
2019-02-21T14:10:43.209Z,14.72
2019-02-21T14:13:12.592Z,14.75
2019-02-21T14:15:41.459Z,14.67
2019-02-21T14:18:10.802Z,14.58
2019-02-21T14:20:45.327Z,14.59
2019-02-21T14:23:09.795Z,14.58
2019-02-21T14:25:41.110Z,14.57
2019-02-21T14:28:08.395Z,14.49
2019-02-21T14:30:37.255Z,14.38
2019-02-21T14:33:06.150Z,14.27
2019-02-21T14:35:36.169Z,14.15
2019-02-21T14:38:05.205Z,14.02
2019-02-21T14:40:34.003Z,13.93
2019-02-21T14:43:02.789Z,13.96
2019-02-21T14:45:31.591Z,14.01
2019-02-21T14:48:02.221Z,14.01
2019-02-21T14:50:32.095Z,14.04
2019-02-21T14:53:00.893Z,14.08
2019-02-21T14:55:30.260Z,14.01
2019-02-21T14:57:58.556Z,13.77
2019-02-21T15:00:27.368Z,13.60
2019-02-21T15:02:57.822Z,13.52
2019-02-21T15:05:25.531Z,13.52
2019-02-21T15:07:54.372Z,13.53
2019-02-21T15:10:24.205Z,13.49
2019-02-21T15:12:53.021Z,13.48
2019-02-21T15:15:22.265Z,13.46
2019-02-21T15:17:51.286Z,13.46
2019-02-21T15:20:20.152Z,13.42
2019-02-21T15:22:49.635Z,13.40
2019-02-21T15:25:18.394Z,13.32
2019-02-21T15:27:47.211Z,13.27
2019-02-21T15:30:17.539Z,13.21
2019-02-21T15:32:48.064Z,13.16
2019-02-21T15:35:19.318Z,13.14
2019-02-21T15:37:47.868Z,13.12
2019-02-21T15:40:17.751Z,13.10
2019-02-21T15:42:47.182Z,13.04
2019-02-21T15:45:23.182Z,12.94
2019-02-21T15:47:46.875Z,12.91
2019-02-21T15:50:16.135Z,12.82
2019-02-21T15:52:45.013Z,12.76
2019-02-21T15:55:14.892Z,12.70
2019-02-21T15:57:44.319Z,12.62
2019-02-21T16:00:15.237Z,12.54
2019-02-21T16:02:44.071Z,12.50
2019-02-21T16:05:13.943Z,12.46
2019-02-21T16:07:43.967Z,12.41
2019-02-21T16:10:14.972Z,12.37
2019-02-21T16:12:44.299Z,12.35
2019-02-21T16:15:16.215Z,12.30
2019-02-21T16:17:42.652Z,12.30
2019-02-21T16:20:12.239Z,12.26
2019-02-21T16:22:41.229Z,12.25
2019-02-21T16:25:11.973Z,12.25
2019-02-21T16:27:40.931Z,12.27
2019-02-21T16:30:09.928Z,12.24
2019-02-21T16:32:38.742Z,12.23
2019-02-21T16:35:08.335Z,12.19
2019-02-21T16:37:40.395Z,12.10
2019-02-21T16:40:10.763Z,12.09
2019-02-21T16:42:39.618Z,12.05
2019-02-21T16:45:09.866Z,11.98
2019-02-21T16:47:38.715Z,11.94
2019-02-21T16:50:08.547Z,11.86
2019-02-21T16:52:37.475Z,11.81
2019-02-21T16:55:08.929Z,11.78
2019-02-21T16:57:39.332Z,11.70
2019-02-21T17:00:11.088Z,11.66
2019-02-21T17:02:39.873Z,11.64
2019-02-21T17:05:09.259Z,11.60
2019-02-21T17:07:38.127Z,11.55
2019-02-21T17:10:07.702Z,11.51
2019-02-21T17:12:37.218Z,11.47
2019-02-21T17:15:07.576Z,11.43
2019-02-21T17:17:36.973Z,11.41
2019-02-21T17:20:06.721Z,11.40
2019-02-21T17:22:35.586Z,11.39
2019-02-21T17:25:04.771Z,11.34
2019-02-21T17:27:34.332Z,11.31
2019-02-21T17:30:03.162Z,11.26
2019-02-21T17:32:33.830Z,11.24
2019-02-21T17:35:03.620Z,11.19
2019-02-21T17:37:32.505Z,11.17
2019-02-21T17:40:01.389Z,11.16
2019-02-21T17:42:30.215Z,11.13
2019-02-21T17:44:59.051Z,11.10
2019-02-21T17:47:27.868Z,11.11
2019-02-21T17:49:56.752Z,11.11
2019-02-21T17:52:25.548Z,11.08
2019-02-21T17:54:54.398Z,11.07
2019-02-21T17:57:23.196Z,11.06
2019-02-21T17:59:52.031Z,11.04
2019-02-21T18:02:21.711Z,11.01
2019-02-21T18:04:51.257Z,10.98
2019-02-21T18:07:20.719Z,10.96
2019-02-21T18:09:49.521Z,10.96
2019-02-21T18:12:18.351Z,10.94
2019-02-21T18:14:47.167Z,10.93
2019-02-21T18:17:16.677Z,10.90
2019-02-21T18:19:45.502Z,10.84
2019-02-21T18:22:14.998Z,10.79
2019-02-21T18:24:44.595Z,10.74
2019-02-21T18:27:13.458Z,10.68
2019-02-21T18:29:43.779Z,10.63
2019-02-21T18:32:17.437Z,10.61
2019-02-21T18:34:49.608Z,10.59
2019-02-21T18:37:19.116Z,10.57
2019-02-21T18:39:47.965Z,10.57
2019-02-21T18:42:18.047Z,10.58
2019-02-21T18:44:47.163Z,10.60
2019-02-21T18:47:18.982Z,10.60
2019-02-21T18:49:48.039Z,10.60
2019-02-21T18:52:17.242Z,10.61
2019-02-21T18:54:46.067Z,10.60
2019-02-21T18:57:15.885Z,10.57
2019-02-21T19:00:09.923Z,10.52
2019-02-21T19:02:38.799Z,10.52
2019-02-21T19:05:07.818Z,10.53
2019-02-21T19:07:37.475Z,10.50
2019-02-21T19:10:08.119Z,10.51
2019-02-21T19:12:38.230Z,10.54
2019-02-21T19:15:08.734Z,10.55
2019-02-21T19:17:37.606Z,10.55
2019-02-21T19:20:08.298Z,10.51
2019-02-21T19:22:37.422Z,10.51
2019-02-21T19:25:08.562Z,10.52
2019-02-21T19:27:37.714Z,10.51
2019-02-21T19:30:10.197Z,10.49
2019-02-21T19:32:39.355Z,10.47
2019-02-21T19:35:08.924Z,10.49
2019-02-21T19:37:37.678Z,10.50
2019-02-21T19:40:08.099Z,10.50
2019-02-21T19:42:36.912Z,10.52
2019-02-21T19:45:06.364Z,10.49
2019-02-21T19:47:35.933Z,10.51
2019-02-21T19:50:04.997Z,10.50
2019-02-21T19:52:33.894Z,10.49
2019-02-21T19:55:03.037Z,10.47
2019-02-21T19:57:32.959Z,10.45
2019-02-21T20:00:02.400Z,10.41
2019-02-21T20:02:31.795Z,10.40
2019-02-21T20:05:00.614Z,10.39
2019-02-21T20:07:30.371Z,10.37
2019-02-21T20:10:00.038Z,10.34
2019-02-21T20:12:28.908Z,10.35
2019-02-21T20:14:57.715Z,10.37
2019-02-21T20:17:26.631Z,10.39
2019-02-21T20:19:55.511Z,10.42
2019-02-21T20:22:24.323Z,10.39
2019-02-21T20:24:53.166Z,10.39
2019-02-21T20:27:22.081Z,10.41
2019-02-21T20:29:50.943Z,10.38
2019-02-21T20:32:19.759Z,10.37
2019-02-21T20:34:48.567Z,10.38
2019-02-21T20:37:17.409Z,10.39
2019-02-21T20:39:46.216Z,10.37
2019-02-21T20:42:15.313Z,10.38
2019-02-21T20:44:44.123Z,10.39
2019-02-21T20:47:12.975Z,10.36
2019-02-21T20:49:41.768Z,10.32
2019-02-21T20:52:10.572Z,10.33
2019-02-21T20:54:39.363Z,10.36
2019-02-21T20:57:08.234Z,10.40
2019-02-21T20:59:37.048Z,10.40
2019-02-21T21:02:05.842Z,10.41
2019-02-21T21:04:34.760Z,10.44
2019-02-21T21:07:03.614Z,10.45
2019-02-21T21:09:32.997Z,10.46
2019-02-21T21:12:01.847Z,10.48
2019-02-21T21:14:30.648Z,10.48
2019-02-21T21:16:59.470Z,10.49
2019-02-21T21:19:28.261Z,10.50
2019-02-21T21:21:57.159Z,10.53
2019-02-21T21:24:26.487Z,10.54
2019-02-21T21:26:56.253Z,10.53
2019-02-21T21:29:25.058Z,10.53
2019-02-21T21:31:55.010Z,10.54
2019-02-21T21:34:25.805Z,10.54
2019-02-21T21:36:54.666Z,10.50
2019-02-21T21:39:23.643Z,10.57
2019-02-21T21:41:52.433Z,10.58
2019-02-21T21:44:21.243Z,10.54
2019-02-21T21:46:50.084Z,10.55
2019-02-21T21:49:20.117Z,10.57
2019-02-21T21:51:48.881Z,10.55
2019-02-21T21:54:17.733Z,10.54
2019-02-21T21:56:46.564Z,10.53
2019-02-21T21:59:15.410Z,10.54
2019-02-21T22:01:47.555Z,10.54
2019-02-21T22:04:15.182Z,10.55
2019-02-21T22:06:44.049Z,10.55
2019-02-21T22:09:12.927Z,10.55
2019-02-21T22:11:41.847Z,10.54
2019-02-21T22:14:10.650Z,10.54
2019-02-21T22:16:39.448Z,10.54
2019-02-21T22:19:08.288Z,10.54
2019-02-21T22:21:37.124Z,10.51
2019-02-21T22:24:05.980Z,10.49
2019-02-21T22:26:35.595Z,10.47
2019-02-21T22:29:05.095Z,10.46
2019-02-21T22:31:33.987Z,10.44
2019-02-21T22:34:02.800Z,10.43
2019-02-21T22:36:31.701Z,10.42
2019-02-21T22:39:02.076Z,10.41
2019-02-21T22:41:29.348Z,10.41
2019-02-21T22:43:58.146Z,10.38
2019-02-21T22:46:27.223Z,10.37
2019-02-21T22:48:57.299Z,10.38
2019-02-21T22:51:26.108Z,10.38
2019-02-21T22:53:54.919Z,10.39
2019-02-21T22:56:26.358Z,10.38
2019-02-21T22:58:55.236Z,10.38
2019-02-21T23:01:29.319Z,10.33
2019-02-21T23:04:15.001Z,10.32
2019-02-21T23:07:00.744Z,10.29
2019-02-21T23:09:30.200Z,10.27
2019-02-21T23:11:59.036Z,10.29
2019-02-21T23:14:27.847Z,10.29
2019-02-21T23:16:56.644Z,10.30
2019-02-21T23:19:25.805Z,10.26
2019-02-21T23:21:55.320Z,10.23
2019-02-21T23:24:24.204Z,10.22
2019-02-21T23:26:53.007Z,10.20
2019-02-21T23:29:21.902Z,10.19
2019-02-21T23:31:50.732Z,10.19
2019-02-21T23:34:25.083Z,10.16
2019-02-21T23:36:53.990Z,10.14
2019-02-21T23:39:23.492Z,10.16
2019-02-21T23:41:52.365Z,10.19
2019-02-21T23:44:21.178Z,10.19
2019-02-21T23:46:54.118Z,10.21
2019-02-21T23:49:21.881Z,10.17
2019-02-21T23:51:52.019Z,10.18
2019-02-21T23:54:21.988Z,10.15
2019-02-21T23:56:50.830Z,10.12
2019-02-21T23:59:20.189Z,10.12
